createdAt,value
2024-04-18T00:01:21.090Z,37.40
2024-04-18T00:03:48.190Z,33.70
2024-04-18T00:06:14.703Z,35.90
2024-04-18T00:08:41.680Z,41.50
2024-04-18T00:11:37.577Z,58.40
2024-04-18T00:14:11.607Z,42.20
2024-04-18T00:16:38.134Z,54.30
2024-04-18T00:19:17.693Z,51.00
2024-04-18T00:21:58.011Z,48.20
2024-04-18T00:24:30.765Z,34.20
2024-04-18T00:26:57.528Z,30.90
2024-04-18T00:29:37.311Z,31.70
2024-04-18T00:32:13.767Z,40.20
2024-04-18T00:35:00.444Z,36.10
2024-04-18T00:37:36.470Z,36.00
2024-04-18T00:40:03.398Z,35.90
2024-04-18T00:42:37.034Z,37.10
2024-04-18T00:45:07.285Z,41.70
2024-04-18T00:47:48.676Z,27.80
2024-04-18T00:50:17.108Z,29.00
2024-04-18T00:52:45.658Z,23.00
2024-04-18T00:55:29.245Z,28.10
2024-04-18T00:58:12.075Z,21.80
2024-04-18T01:00:42.755Z,26.60
2024-04-18T01:03:29.018Z,26.70
2024-04-18T01:06:08.788Z,32.30
2024-04-18T01:08:54.877Z,25.10
2024-04-18T01:11:31.698Z,21.80
2024-04-18T01:14:06.391Z,25.30
2024-04-18T01:16:52.891Z,25.20
2024-04-18T01:19:20.350Z,22.80
2024-04-18T01:21:47.356Z,30.10
2024-04-18T01:24:15.238Z,25.90
2024-04-18T01:26:42.243Z,25.90
2024-04-18T01:29:08.838Z,22.40
2024-04-18T01:31:35.480Z,28.50
2024-04-18T01:34:04.563Z,28.00
2024-04-18T01:36:31.192Z,37.20
2024-04-18T01:39:17.822Z,32.30
2024-04-18T01:41:44.496Z,26.10
2024-04-18T01:44:30.965Z,21.80
2024-04-18T01:47:27.061Z,24.80
2024-04-18T01:50:09.713Z,41.10
2024-04-18T01:52:38.595Z,20.40
2024-04-18T01:55:08.719Z,25.40
2024-04-18T01:57:37.141Z,27.00
2024-04-18T02:00:22.637Z,24.70
2024-04-18T02:02:49.246Z,22.30
2024-04-18T02:05:34.427Z,19.00
2024-04-18T02:08:16.539Z,27.20
2024-04-18T02:10:46.008Z,21.30
2024-04-18T02:13:33.548Z,24.00
2024-04-18T02:16:00.038Z,25.80
2024-04-18T02:18:26.602Z,28.90
2024-04-18T02:21:12.547Z,24.70
2024-04-18T02:23:51.606Z,25.10
2024-04-18T02:26:18.265Z,25.40
2024-04-18T02:28:44.971Z,27.00
2024-04-18T02:31:17.236Z,26.50
2024-04-18T02:33:49.831Z,39.00
2024-04-18T02:36:16.469Z,38.30
2024-04-18T02:38:42.930Z,47.40
2024-04-18T02:41:09.418Z,22.80
2024-04-18T02:43:52.715Z,28.60
2024-04-18T02:46:19.879Z,30.30
2024-04-18T02:49:05.017Z,23.10
2024-04-18T02:51:32.111Z,28.10
2024-04-18T02:54:14.084Z,24.70
2024-04-18T02:56:41.718Z,24.50
2024-04-18T02:59:10.786Z,26.30
2024-04-18T03:01:50.395Z,45.70
2024-04-18T03:04:17.263Z,27.70
2024-04-18T03:06:47.347Z,28.30
2024-04-18T03:09:15.463Z,41.50
2024-04-18T03:11:54.735Z,49.30
2024-04-18T03:14:40.932Z,34.80
2024-04-18T03:17:08.448Z,21.30
2024-04-18T03:19:53.687Z,22.30
2024-04-18T03:22:26.962Z,26.80
2024-04-18T03:25:01.130Z,28.10
2024-04-18T03:27:30.656Z,27.00
2024-04-18T03:29:57.567Z,18.30
2024-04-18T03:32:36.843Z,20.20
2024-04-18T03:35:04.672Z,21.50
2024-04-18T03:37:31.205Z,23.40
2024-04-18T03:39:57.761Z,24.80
2024-04-18T03:42:24.289Z,24.80
2024-04-18T03:44:56.772Z,21.60
2024-04-18T03:47:24.070Z,31.50
2024-04-18T03:50:08.947Z,28.00
2024-04-18T03:52:39.684Z,34.90
2024-04-18T03:55:06.385Z,39.60
2024-04-18T03:57:49.513Z,37.50
2024-04-18T04:00:16.333Z,21.10
2024-04-18T04:02:42.978Z,34.10
2024-04-18T04:05:09.479Z,34.30
2024-04-18T04:07:36.095Z,27.20
2024-04-18T04:10:02.721Z,26.60
2024-04-18T04:12:29.440Z,26.20
2024-04-18T05:37:54.044Z,33.70
2024-04-18T06:38:48.479Z,24.50
2024-04-18T06:41:14.937Z,26.50
2024-04-18T06:43:41.727Z,23.50
2024-04-18T06:46:08.582Z,30.00
2024-04-18T06:48:35.087Z,32.20
2024-04-18T06:51:01.571Z,35.20
2024-04-18T06:53:28.227Z,32.00
2024-04-18T06:55:54.745Z,40.70
2024-04-18T06:58:21.244Z,29.20
2024-04-18T07:00:47.869Z,29.50
2024-04-18T07:03:14.572Z,31.20
2024-04-18T07:05:51.476Z,33.20
2024-04-18T07:08:21.350Z,32.10
2024-04-18T07:10:48.168Z,33.20
2024-04-18T07:13:28.167Z,49.80
2024-04-18T07:15:59.121Z,40.30
2024-04-18T07:18:44.787Z,36.30
2024-04-18T07:21:11.671Z,37.40
2024-04-18T07:23:38.234Z,46.90
2024-04-18T07:26:05.454Z,30.40
2024-04-18T07:28:32.257Z,31.10
2024-04-18T07:30:58.803Z,31.20
2024-04-18T07:33:25.841Z,28.50
2024-04-18T07:35:56.642Z,26.60
2024-04-18T07:38:28.903Z,28.70
2024-04-18T07:40:55.554Z,20.50
2024-04-18T07:43:22.070Z,24.10
2024-04-18T07:45:48.889Z,24.10
2024-04-18T07:48:15.549Z,21.30
2024-04-18T07:50:42.413Z,22.10
2024-04-18T07:53:10.444Z,21.40
2024-04-18T07:55:38.245Z,22.20
2024-04-18T07:58:06.001Z,21.40
2024-04-18T08:00:35.581Z,22.00
2024-04-18T08:03:05.803Z,21.00
2024-04-18T08:05:36.036Z,19.60
2024-04-18T08:08:07.789Z,17.80
2024-04-18T08:10:45.959Z,21.00
2024-04-18T08:13:26.891Z,18.20
2024-04-18T08:18:24.559Z,18.70
2024-04-18T08:20:51.347Z,20.70
2024-04-18T08:23:19.989Z,17.10
2024-04-18T08:25:47.943Z,13.30
2024-04-18T08:28:14.761Z,12.50
2024-04-18T08:30:41.679Z,10.70
2024-04-18T08:33:08.653Z,11.20
2024-04-18T08:35:35.408Z,12.80
2024-04-18T08:38:02.298Z,10.00
2024-04-18T08:40:29.154Z,12.40
2024-04-18T08:42:55.778Z,8.30
2024-04-18T08:45:26.125Z,11.20
2024-04-18T08:47:55.057Z,10.20
2024-04-18T08:50:23.474Z,6.70
2024-04-18T08:52:52.552Z,9.10
2024-04-18T08:55:19.067Z,7.70
2024-04-18T08:57:52.799Z,7.70
2024-04-18T09:00:26.613Z,6.40
2024-04-18T09:02:53.524Z,5.60
2024-04-18T09:05:20.145Z,7.20
2024-04-18T09:07:46.947Z,6.80
2024-04-18T09:10:14.325Z,6.70
2024-04-18T09:12:40.951Z,5.70
2024-04-18T09:15:07.839Z,6.50
2024-04-18T09:17:34.851Z,6.30
2024-04-18T09:20:01.575Z,4.90
2024-04-18T09:22:28.150Z,6.10
2024-04-18T09:24:54.983Z,5.70
2024-04-18T09:27:21.457Z,5.00
2024-04-18T09:29:48.169Z,5.20
2024-04-18T09:32:15.296Z,6.00
2024-04-18T09:34:43.709Z,5.00
2024-04-18T09:37:12.546Z,5.10
2024-04-18T09:39:43.465Z,5.30
2024-04-18T09:42:19.802Z,5.80
2024-04-18T09:44:53.786Z,5.10
2024-04-18T09:47:24.124Z,3.90
2024-04-18T09:49:54.066Z,4.20
2024-04-18T09:52:22.138Z,3.90
2024-04-18T09:54:50.693Z,4.20
2024-04-18T09:57:17.592Z,4.40
2024-04-18T09:59:46.082Z,4.40
2024-04-18T10:02:13.636Z,4.40
2024-04-18T10:04:41.601Z,4.50
2024-04-18T10:07:11.500Z,3.90
2024-04-18T10:09:40.024Z,5.40
2024-04-18T10:12:09.320Z,5.10
2024-04-18T10:14:39.085Z,7.20
2024-04-18T10:17:06.134Z,5.80
2024-04-18T10:19:32.856Z,8.80
2024-04-18T10:22:11.624Z,6.10
2024-04-18T10:24:51.539Z,6.30
2024-04-18T10:27:18.354Z,8.00
2024-04-18T10:29:57.735Z,3.70
2024-04-18T10:32:29.812Z,5.30
2024-04-18T10:34:59.418Z,4.30
2024-04-18T10:37:25.891Z,3.60
2024-04-18T10:39:53.437Z,4.00
2024-04-18T10:42:21.028Z,3.70
2024-04-18T10:44:48.571Z,4.80
2024-04-18T10:47:19.191Z,3.30
2024-04-18T10:49:46.141Z,4.40
2024-04-18T10:52:17.254Z,3.50
2024-04-18T10:54:45.016Z,5.70
2024-04-18T10:57:12.494Z,3.40
2024-04-18T10:59:39.777Z,4.10
2024-04-18T11:02:08.088Z,3.70
2024-04-18T11:04:35.304Z,3.70
2024-04-18T11:07:02.570Z,3.90
2024-04-18T11:09:29.369Z,3.80
2024-04-18T11:11:56.335Z,3.90
2024-04-18T11:14:23.158Z,3.40
2024-04-18T11:16:57.554Z,3.40
2024-04-18T11:19:25.398Z,5.10
2024-04-18T11:21:52.691Z,3.50
2024-04-18T11:24:28.290Z,4.20
2024-04-18T11:26:55.001Z,3.70
2024-04-18T11:29:26.319Z,5.10
2024-04-18T11:31:53.325Z,2.60
2024-04-18T11:34:19.935Z,5.60
2024-04-18T11:36:47.582Z,3.60
2024-04-18T11:39:14.357Z,4.10
2024-04-18T11:41:41.215Z,3.10
2024-04-18T11:44:08.358Z,3.50
2024-04-18T11:46:35.175Z,3.40
2024-04-18T11:49:01.814Z,4.30
2024-04-18T11:51:28.719Z,4.50
2024-04-18T11:53:55.359Z,4.60
2024-04-18T11:56:34.268Z,3.40
2024-04-18T11:59:00.999Z,2.60
2024-04-18T12:01:33.839Z,3.30
2024-04-18T12:04:18.893Z,2.90
2024-04-18T12:06:45.938Z,3.80
2024-04-18T12:09:27.283Z,3.80
2024-04-18T12:11:58.312Z,3.10
2024-04-18T12:14:24.830Z,3.10
2024-04-18T12:16:56.368Z,3.20
2024-04-18T12:19:52.259Z,2.20
2024-04-18T12:22:36.742Z,3.10
2024-04-18T12:25:16.999Z,3.70
2024-04-18T12:27:44.202Z,4.00
2024-04-18T12:30:30.716Z,2.90
2024-04-18T12:33:16.590Z,3.80
2024-04-18T12:35:44.519Z,2.80
2024-04-18T12:38:11.352Z,3.30
2024-04-18T12:40:45.001Z,4.80
2024-04-18T12:43:12.495Z,5.20
2024-04-18T12:46:06.151Z,4.90
2024-04-18T12:48:50.967Z,3.60
2024-04-18T12:51:18.454Z,1.90
2024-04-18T12:53:45.288Z,1.90
2024-04-18T12:56:12.247Z,3.00
2024-04-18T12:58:42.782Z,2.10
2024-04-18T13:01:10.647Z,2.50
2024-04-18T13:03:41.148Z,2.80
2024-04-18T13:06:27.460Z,1.10
2024-04-18T13:08:55.918Z,1.50
2024-04-18T13:11:41.048Z,2.00
2024-04-18T13:14:08.486Z,1.20
2024-04-18T13:16:35.629Z,1.50
2024-04-18T13:19:10.135Z,2.00
2024-04-18T13:21:37.232Z,1.50
2024-04-18T13:24:04.166Z,1.40
2024-04-18T13:26:51.619Z,4.60
2024-04-18T13:29:19.430Z,3.50
2024-04-18T13:31:47.247Z,12.70
2024-04-18T13:34:20.435Z,3.30
2024-04-18T13:36:47.553Z,3.50
2024-04-18T13:39:14.791Z,2.70
2024-04-18T13:41:41.597Z,2.00
2024-04-18T13:44:17.793Z,2.60
2024-04-18T13:46:45.353Z,2.70
2024-04-18T13:49:33.027Z,2.70
2024-04-18T13:52:00.134Z,1.70
2024-04-18T13:54:33.793Z,1.80
2024-04-18T13:57:01.065Z,2.10
2024-04-18T13:59:41.166Z,1.50
2024-04-18T14:02:27.477Z,2.00
2024-04-18T14:05:22.351Z,2.10
2024-04-18T14:08:04.577Z,3.30
2024-04-18T14:10:31.433Z,3.10
2024-04-18T14:13:16.633Z,2.90
2024-04-18T14:15:52.347Z,3.40
2024-04-18T14:18:38.280Z,3.30
2024-04-18T14:21:05.287Z,6.60
2024-04-18T14:23:31.782Z,2.30
2024-04-18T14:26:00.030Z,2.20
2024-04-18T14:28:31.725Z,2.60
2024-04-18T14:31:18.554Z,2.80
2024-04-18T14:33:48.026Z,2.50
2024-04-18T14:36:14.974Z,3.30
2024-04-18T14:38:41.674Z,3.10
2024-04-18T14:41:12.162Z,3.20
2024-04-18T14:43:39.454Z,1.90
2024-04-18T14:46:06.456Z,3.80
2024-04-18T14:48:45.587Z,2.10
2024-04-18T14:51:22.659Z,2.30
2024-04-18T14:53:49.444Z,2.30
2024-04-18T14:56:16.595Z,2.80
2024-04-18T14:59:01.422Z,3.10
2024-04-18T15:01:28.703Z,2.40
2024-04-18T15:03:55.341Z,2.20
2024-04-18T15:06:22.269Z,2.30
2024-04-18T15:09:18.254Z,2.00
2024-04-18T15:11:57.223Z,1.80
2024-04-18T15:14:37.085Z,1.90
2024-04-18T15:17:08.184Z,2.30
2024-04-18T15:19:35.724Z,2.20
2024-04-18T15:22:21.431Z,1.90
2024-04-18T15:24:48.056Z,2.30
2024-04-18T15:27:14.868Z,2.80
2024-04-18T15:29:41.796Z,2.90
2024-04-18T15:32:21.650Z,3.20
2024-04-18T15:34:49.225Z,3.20
2024-04-18T15:37:35.081Z,3.10
2024-04-18T15:40:02.199Z,2.70
2024-04-18T15:42:28.813Z,2.90
2024-04-18T15:44:55.329Z,3.60
2024-04-18T15:47:33.011Z,1.90
2024-04-18T15:50:17.976Z,2.90
2024-04-18T15:52:45.539Z,2.40
2024-04-18T15:55:30.171Z,1.90
2024-04-18T15:58:17.610Z,2.20
2024-04-18T16:00:44.298Z,5.20
2024-04-18T16:03:31.783Z,3.70
2024-04-18T16:06:19.877Z,1.80
2024-04-18T16:09:06.680Z,195.00
2024-04-18T16:11:39.592Z,41.00
2024-04-18T16:14:06.127Z,21.20
2024-04-18T16:16:32.696Z,28.60
2024-04-18T16:19:08.365Z,16.90
2024-04-18T16:21:35.045Z,5.00
2024-04-18T16:24:15.259Z,2.70
2024-04-18T16:26:41.940Z,2.30
2024-04-18T16:29:08.464Z,2.50
2024-04-18T16:31:40.850Z,3.20
2024-04-18T16:34:16.788Z,4.60
2024-04-18T16:36:44.922Z,5.90
2024-04-18T16:39:14.109Z,2.30
2024-04-18T16:41:41.331Z,2.90
2024-04-18T16:44:08.091Z,5.60
2024-04-18T16:46:34.573Z,3.20
2024-04-18T16:49:01.256Z,4.90
2024-04-18T16:51:27.939Z,4.40
2024-04-18T16:53:55.971Z,3.00
2024-04-18T16:56:22.899Z,4.00
2024-04-18T16:58:53.365Z,3.50
2024-04-18T17:01:20.629Z,3.40
2024-04-18T17:03:47.528Z,4.20
2024-04-18T17:06:41.863Z,4.10
2024-04-18T17:09:16.239Z,4.30
2024-04-18T17:11:43.075Z,5.10
2024-04-18T17:14:28.702Z,5.10
2024-04-18T17:16:55.142Z,4.70
2024-04-18T17:19:21.878Z,7.80
2024-04-18T17:21:49.147Z,9.20
2024-04-18T17:24:15.688Z,9.00
2024-04-18T17:27:01.334Z,10.30
2024-04-18T17:29:28.233Z,12.20
2024-04-18T17:31:54.917Z,13.60
2024-04-18T17:34:21.881Z,11.60
2024-04-18T17:36:48.551Z,13.50
2024-04-18T17:39:35.935Z,11.20
2024-04-18T17:42:03.014Z,9.60
2024-04-18T17:44:50.062Z,9.50
2024-04-18T17:47:27.665Z,9.90
2024-04-18T17:49:54.627Z,9.30
2024-04-18T17:52:24.470Z,7.40
2024-04-18T17:54:51.098Z,8.80
2024-04-18T17:57:17.596Z,11.70
2024-04-18T18:00:05.756Z,11.80
2024-04-18T18:02:38.949Z,10.40
2024-04-18T18:05:05.546Z,10.50
2024-04-18T18:07:32.119Z,11.50
2024-04-18T18:09:58.767Z,10.30
2024-04-18T18:12:25.428Z,15.20
2024-04-18T18:14:52.039Z,11.90
2024-04-18T18:17:18.615Z,13.00
2024-04-18T18:19:45.324Z,17.30
2024-04-18T18:22:11.957Z,14.60
2024-04-18T18:24:38.851Z,10.90
2024-04-18T18:27:05.514Z,12.40
2024-04-18T18:29:32.447Z,9.00
2024-04-18T18:32:08.385Z,4.30
2024-04-18T18:34:35.412Z,6.10
2024-04-18T18:37:01.973Z,3.90
2024-04-18T18:39:28.640Z,4.30
2024-04-18T18:41:55.326Z,5.10
2024-04-18T18:44:22.118Z,5.00
2024-04-18T18:46:49.362Z,6.20
2024-04-18T18:49:16.294Z,6.50
2024-04-18T18:51:43.359Z,5.50
2024-04-18T18:54:10.832Z,4.80
2024-04-18T18:56:37.490Z,7.20
2024-04-18T18:59:22.770Z,7.10
2024-04-18T19:01:49.296Z,7.30
2024-04-18T19:04:22.652Z,7.30
2024-04-18T19:06:52.346Z,7.30
2024-04-18T19:09:19.760Z,10.90
2024-04-18T19:11:46.586Z,9.00
2024-04-18T19:14:13.957Z,10.10
2024-04-18T19:17:03.917Z,9.10
2024-04-18T19:19:31.122Z,6.90
2024-04-18T19:21:57.739Z,9.00
2024-04-18T19:24:27.133Z,9.90
2024-04-18T19:26:57.978Z,12.30
2024-04-18T19:29:32.113Z,11.80
2024-04-18T19:32:06.703Z,13.20
2024-04-18T19:34:33.320Z,10.20
2024-04-18T19:37:00.187Z,10.40
2024-04-18T19:39:27.200Z,11.60
2024-04-18T19:41:56.981Z,13.20
2024-04-18T19:44:23.552Z,11.20
2024-04-18T19:46:51.380Z,16.00
2024-04-18T19:49:18.090Z,16.30
2024-04-18T19:51:56.361Z,16.40
2024-04-18T19:54:22.948Z,12.70
2024-04-18T19:56:49.810Z,14.60
2024-04-18T19:59:16.634Z,17.60
2024-04-18T20:01:43.160Z,14.40
2024-04-18T20:04:10.026Z,16.70
2024-04-18T20:06:36.757Z,15.60
2024-04-18T20:09:03.412Z,15.30
2024-04-18T20:11:30.114Z,13.30
2024-04-18T20:13:57.106Z,12.30
2024-04-18T20:16:23.646Z,15.10
2024-04-18T20:19:14.403Z,14.80
2024-04-18T20:21:43.133Z,15.70
2024-04-18T20:24:11.041Z,16.90
2024-04-18T20:26:57.966Z,18.40
2024-04-18T20:29:43.472Z,12.90
2024-04-18T20:32:23.156Z,15.50
2024-04-18T20:34:51.522Z,15.40
2024-04-18T20:37:18.205Z,18.00
2024-04-18T20:39:45.733Z,17.50
2024-04-18T20:42:13.203Z,16.60
2024-04-18T20:44:59.506Z,17.00
2024-04-18T20:47:26.433Z,16.60
2024-04-18T20:49:52.978Z,17.70
2024-04-18T20:52:19.700Z,17.60
2024-04-18T20:54:52.096Z,17.30
2024-04-18T20:57:18.787Z,17.80
2024-04-18T20:59:45.525Z,17.70
2024-04-18T21:02:12.033Z,15.90
2024-04-18T21:04:38.564Z,16.20
2024-04-18T21:07:05.101Z,19.90
2024-04-18T21:09:31.793Z,18.90
2024-04-18T21:11:58.311Z,19.30
2024-04-18T21:14:24.958Z,23.00
2024-04-18T21:16:51.505Z,24.10
2024-04-18T21:19:21.474Z,23.70
2024-04-18T21:21:48.628Z,22.20
2024-04-18T21:24:15.147Z,24.70
2024-04-18T21:26:48.234Z,21.30
2024-04-18T21:29:15.482Z,19.50
2024-04-18T21:31:42.076Z,23.20
2024-04-18T21:34:10.832Z,19.00
2024-04-18T21:36:37.565Z,20.50
2024-04-18T21:39:04.434Z,20.40
2024-04-18T21:41:30.948Z,21.50
2024-04-18T21:43:57.574Z,24.60
2024-04-18T21:46:24.906Z,23.10
2024-04-18T21:48:51.526Z,21.90
2024-04-18T21:51:18.426Z,19.60
2024-04-18T21:53:45.048Z,18.80
2024-04-18T21:56:11.526Z,17.50
2024-04-18T21:58:38.130Z,17.10
2024-04-18T22:01:04.766Z,20.90
2024-04-18T22:03:31.532Z,18.10
2024-04-18T22:05:58.195Z,16.50
2024-04-18T22:08:25.052Z,16.10
2024-04-18T22:10:53.109Z,16.60
2024-04-18T22:13:19.626Z,18.50
2024-04-18T22:15:46.185Z,15.60
2024-04-18T22:18:13.013Z,17.00
2024-04-18T22:20:39.856Z,19.10
2024-04-18T22:23:15.126Z,17.90
2024-04-18T22:25:43.245Z,17.00
2024-04-18T22:28:09.833Z,15.60
2024-04-18T22:30:36.327Z,17.10
2024-04-18T22:33:03.425Z,16.90
2024-04-18T22:35:29.994Z,15.80
2024-04-18T22:37:56.472Z,15.20
2024-04-18T22:40:23.421Z,16.60
2024-04-18T22:42:49.976Z,13.40
2024-04-18T22:45:16.733Z,13.10
2024-04-18T22:47:43.352Z,16.00
2024-04-18T22:50:10.057Z,16.70
2024-04-18T22:52:36.509Z,16.90
2024-04-18T22:55:03.352Z,15.80
2024-04-18T22:57:30.098Z,13.20
2024-04-18T22:59:56.596Z,15.40
2024-04-18T23:02:23.464Z,15.40
2024-04-18T23:04:49.958Z,15.00
2024-04-18T23:07:16.448Z,12.80
2024-04-18T23:09:42.958Z,12.70
2024-04-18T23:12:09.504Z,16.10
2024-04-18T23:14:36.114Z,12.60
2024-04-18T23:17:02.808Z,13.10
2024-04-18T23:19:29.381Z,17.00
2024-04-18T23:21:55.882Z,11.90
2024-04-18T23:24:37.635Z,12.80
2024-04-18T23:27:04.686Z,11.40
2024-04-18T23:29:31.831Z,14.30
2024-04-18T23:31:58.714Z,14.10
2024-04-18T23:34:25.453Z,12.80
2024-04-18T23:37:01.278Z,12.10
2024-04-18T23:39:27.883Z,10.70
2024-04-18T23:41:54.642Z,11.00
2024-04-18T23:44:21.226Z,12.30
2024-04-18T23:46:47.811Z,11.40
2024-04-18T23:49:14.490Z,11.80
2024-04-18T23:51:41.739Z,11.90
2024-04-18T23:54:08.833Z,11.10
2024-04-18T23:56:35.317Z,10.60
2024-04-18T23:59:02.134Z,11.50
